createdAt,value
2024-05-09T00:02:02.004Z,11.20
2024-05-09T00:04:51.493Z,11.10
2024-05-09T00:07:40.530Z,11.10
2024-05-09T00:10:35.993Z,11.10
2024-05-09T00:13:27.633Z,11.10
2024-05-09T00:16:19.609Z,11.00
2024-05-09T00:19:09.053Z,11.00
2024-05-09T00:21:58.639Z,11.00
2024-05-09T00:24:48.214Z,11.00
2024-05-09T00:27:39.008Z,10.90
2024-05-09T00:30:33.971Z,10.90
2024-05-09T00:33:28.810Z,10.90
2024-05-09T00:36:18.103Z,10.90
2024-05-09T00:39:07.402Z,10.90
2024-05-09T00:41:56.677Z,10.80
2024-05-09T00:44:46.103Z,10.80
2024-05-09T00:47:35.709Z,10.80
2024-05-09T00:50:35.635Z,10.80
2024-05-09T00:53:28.050Z,10.70
2024-05-09T00:56:19.558Z,10.70
2024-05-09T00:59:09.401Z,10.70
2024-05-09T01:01:58.845Z,10.70
2024-05-09T01:04:48.111Z,10.70
2024-05-09T01:07:40.530Z,10.70
2024-05-09T01:10:34.531Z,10.70
2024-05-09T01:13:25.088Z,10.60
2024-05-09T01:16:15.765Z,10.60
2024-05-09T01:19:09.307Z,10.60
2024-05-09T01:21:59.227Z,10.50
2024-05-09T01:24:51.993Z,10.50
2024-05-09T01:27:41.416Z,10.40
2024-05-09T01:30:34.491Z,10.40
2024-05-09T01:33:26.737Z,10.40
2024-05-09T01:36:16.577Z,10.40
2024-05-09T01:39:05.868Z,10.30
2024-05-09T01:41:57.743Z,10.30
2024-05-09T01:44:47.177Z,10.30
2024-05-09T01:47:36.917Z,10.20
2024-05-09T01:50:37.357Z,10.30
2024-05-09T01:53:30.391Z,10.20
2024-05-09T01:56:19.865Z,10.20
2024-05-09T01:59:11.865Z,10.10
2024-05-09T02:02:01.668Z,10.10
2024-05-09T02:04:51.368Z,10.00
2024-05-09T02:07:40.589Z,10.10
2024-05-09T02:10:32.747Z,10.10
2024-05-09T02:13:22.691Z,10.00
2024-05-09T02:16:17.960Z,10.00
2024-05-09T02:19:07.760Z,9.90
2024-05-09T02:21:57.370Z,9.90
2024-05-09T02:24:46.917Z,9.90
2024-05-09T02:27:36.416Z,9.90
2024-05-09T02:30:35.706Z,9.90
2024-05-09T02:33:31.883Z,9.80
2024-05-09T02:36:22.485Z,9.80
2024-05-09T02:39:09.200Z,9.80
2024-05-09T02:41:58.486Z,9.80
2024-05-09T02:44:45.366Z,9.70
2024-05-09T02:47:34.752Z,9.80
2024-05-09T02:50:33.073Z,9.70
2024-05-09T02:53:27.217Z,9.70
2024-05-09T02:56:13.843Z,9.80
2024-05-09T02:59:03.108Z,9.70
2024-05-09T03:01:49.805Z,9.70
2024-05-09T03:04:39.004Z,9.70
2024-05-09T03:07:28.178Z,9.70
2024-05-09T03:10:22.442Z,9.60
2024-05-09T03:13:14.898Z,9.60
2024-05-09T03:16:05.092Z,9.60
2024-05-09T03:18:54.649Z,9.60
2024-05-09T03:21:41.569Z,9.60
2024-05-09T03:24:33.426Z,9.60
2024-05-09T03:27:20.191Z,9.50
2024-05-09T03:30:12.444Z,9.50
2024-05-09T03:33:02.707Z,9.50
2024-05-09T03:35:52.320Z,9.40
2024-05-09T03:38:42.303Z,9.40
2024-05-09T03:41:35.545Z,9.40
2024-05-09T03:44:24.983Z,9.40
2024-05-09T03:47:12.821Z,9.40
2024-05-09T03:50:01.948Z,9.30
2024-05-09T03:52:48.846Z,9.30
2024-05-09T03:55:38.945Z,9.30
2024-05-09T03:58:28.452Z,9.20
2024-05-09T04:01:18.063Z,9.30
2024-05-09T04:04:05.371Z,9.20
2024-05-09T04:06:54.557Z,9.20
2024-05-09T04:09:41.400Z,9.20
2024-05-09T04:12:30.759Z,9.20
2024-05-09T04:15:20.125Z,9.20
2024-05-09T04:18:09.959Z,9.20
2024-05-09T04:20:57.005Z,9.20
2024-05-09T04:23:46.171Z,9.10
2024-05-09T04:26:32.943Z,9.10
2024-05-09T04:29:22.206Z,9.20
2024-05-09T04:32:11.771Z,9.20
2024-05-09T04:35:01.255Z,9.20
2024-05-09T04:37:48.053Z,9.20
2024-05-09T04:40:38.188Z,9.20
2024-05-09T04:43:25.072Z,9.20
2024-05-09T04:46:14.384Z,9.20
2024-05-09T04:49:06.448Z,9.20
2024-05-09T04:51:53.550Z,9.20
2024-05-09T04:54:43.329Z,9.20
2024-05-09T04:57:30.047Z,9.30
2024-05-09T05:00:28.453Z,9.30
2024-05-09T05:03:24.940Z,9.30
2024-05-09T05:06:14.751Z,9.40
2024-05-09T05:09:04.360Z,9.40
2024-05-09T05:11:53.706Z,9.50
2024-05-09T05:14:40.457Z,9.50
2024-05-09T05:17:29.947Z,9.60
2024-05-09T05:20:27.317Z,9.60
2024-05-09T05:23:28.198Z,9.70
2024-05-09T05:26:20.156Z,9.70
2024-05-09T05:29:09.556Z,9.80
2024-05-09T05:31:56.177Z,9.90
2024-05-09T05:34:45.742Z,10.00
2024-05-09T05:37:32.351Z,10.10
2024-05-09T05:40:32.695Z,10.20
2024-05-09T05:43:23.302Z,10.30
2024-05-09T05:46:12.818Z,10.50
2024-05-09T05:48:59.453Z,10.60
2024-05-09T05:51:48.740Z,10.80
2024-05-09T05:54:35.593Z,10.90
2024-05-09T05:57:27.757Z,11.00
2024-05-09T06:00:25.234Z,11.20
2024-05-09T06:03:18.675Z,11.40
2024-05-09T06:06:05.684Z,11.60
2024-05-09T06:08:54.950Z,11.70
2024-05-09T06:11:42.395Z,11.90
2024-05-09T06:14:34.567Z,12.00
2024-05-09T06:17:21.776Z,12.20
2024-05-09T06:20:20.227Z,12.30
2024-05-09T06:23:11.784Z,12.50
2024-05-09T06:26:01.742Z,12.60
2024-05-09T06:28:48.408Z,12.70
2024-05-09T06:31:45.179Z,12.80
2024-05-09T06:34:32.181Z,12.90
2024-05-09T06:37:22.008Z,13.00
2024-05-09T06:40:09.970Z,13.00
2024-05-09T06:42:59.351Z,13.10
2024-05-09T06:45:47.734Z,13.20
2024-05-09T06:48:40.631Z,13.30
2024-05-09T06:51:27.533Z,13.40
2024-05-09T06:54:18.247Z,13.50
2024-05-09T06:57:05.660Z,13.60
2024-05-09T06:59:59.635Z,13.60
2024-05-09T07:02:46.571Z,13.60
2024-05-09T07:05:38.748Z,13.70
2024-05-09T07:08:25.675Z,13.70
2024-05-09T07:11:14.990Z,13.80
2024-05-09T07:14:01.996Z,13.80
2024-05-09T07:16:51.425Z,13.90
2024-05-09T07:19:38.023Z,13.90
2024-05-09T07:22:29.937Z,14.00
2024-05-09T07:25:16.980Z,14.00
2024-05-09T07:28:06.387Z,14.10
2024-05-09T07:30:53.390Z,14.20
2024-05-09T07:33:42.837Z,14.20
2024-05-09T07:36:29.371Z,14.30
2024-05-09T07:39:22.825Z,14.30
2024-05-09T07:42:10.655Z,14.40
2024-05-09T07:45:17.140Z,14.50
2024-05-09T07:53:07.588Z,14.60
2024-05-09T07:54:08.565Z,14.60
2024-05-09T07:57:01.046Z,14.60
2024-05-09T07:59:47.993Z,14.70
2024-05-09T08:02:37.280Z,14.70
2024-05-09T08:05:23.957Z,14.80
2024-05-09T08:08:13.435Z,14.80
2024-05-09T08:11:00.625Z,14.90
2024-05-09T08:13:52.545Z,14.90
2024-05-09T08:16:39.220Z,15.00
2024-05-09T08:19:28.977Z,15.10
2024-05-09T08:22:19.902Z,15.20
2024-05-09T08:25:06.929Z,15.20
2024-05-09T08:27:56.324Z,15.30
2024-05-09T08:30:46.273Z,15.30
2024-05-09T08:33:36.225Z,15.40
2024-05-09T08:36:23.621Z,15.50
2024-05-09T08:39:12.977Z,15.60
2024-05-09T08:42:02.310Z,15.60
2024-05-09T08:44:52.598Z,15.70
2024-05-09T08:47:42.984Z,15.70
2024-05-09T08:50:38.315Z,15.80
2024-05-09T08:53:26.432Z,15.90
2024-05-09T08:56:17.882Z,15.90
2024-05-09T08:59:09.034Z,16.10
2024-05-09T09:01:58.871Z,16.00
2024-05-09T09:04:53.527Z,16.10
2024-05-09T09:07:43.168Z,16.10
2024-05-09T09:10:32.443Z,16.20
2024-05-09T09:13:22.808Z,16.30
2024-05-09T09:16:09.440Z,16.40
2024-05-09T09:18:58.805Z,16.40
2024-05-09T09:21:48.269Z,16.50
2024-05-09T09:24:40.708Z,16.50
2024-05-09T09:27:30.333Z,16.60
2024-05-09T09:30:31.396Z,16.70
2024-05-09T09:33:26.110Z,16.80
2024-05-09T09:36:14.316Z,16.90
2024-05-09T09:39:07.652Z,16.90
2024-05-09T09:41:56.622Z,17.00
2024-05-09T09:44:54.585Z,17.10
2024-05-09T09:47:49.036Z,17.20
2024-05-09T09:50:40.334Z,17.30
2024-05-09T09:53:28.882Z,17.30
2024-05-09T09:56:22.676Z,17.40
2024-05-09T09:59:13.273Z,17.50
2024-05-09T10:02:02.777Z,17.50
2024-05-09T10:04:49.925Z,17.50
2024-05-09T10:07:42.770Z,17.60
2024-05-09T10:10:33.519Z,17.70
2024-05-09T10:13:36.342Z,17.80
2024-05-09T10:16:23.533Z,17.90
2024-05-09T10:19:13.344Z,17.90
2024-05-09T10:22:03.719Z,18.00
2024-05-09T10:24:54.050Z,18.00
2024-05-09T10:27:40.663Z,18.10
2024-05-09T10:30:36.173Z,18.20
2024-05-09T10:33:24.468Z,18.30
2024-05-09T10:36:15.194Z,18.40
2024-05-09T10:39:02.177Z,18.50
2024-05-09T10:41:53.272Z,18.50
2024-05-09T10:44:40.151Z,18.60
2024-05-09T10:47:32.965Z,18.60
2024-05-09T10:50:25.720Z,18.70
2024-05-09T10:53:19.218Z,18.80
2024-05-09T10:56:06.526Z,18.80
2024-05-09T10:58:56.134Z,18.90
2024-05-09T11:01:43.644Z,19.00
2024-05-09T11:04:37.023Z,19.10
2024-05-09T11:07:23.946Z,19.10
2024-05-09T11:10:14.824Z,19.10
2024-05-09T11:13:05.175Z,19.20
2024-05-09T11:15:54.829Z,19.30
2024-05-09T11:18:42.295Z,19.40
2024-05-09T11:21:34.474Z,19.50
2024-05-09T11:24:21.189Z,19.50
2024-05-09T11:27:10.476Z,19.50
2024-05-09T11:29:58.562Z,19.60
2024-05-09T11:32:48.147Z,19.70
2024-05-09T11:35:34.670Z,19.70
2024-05-09T11:38:26.648Z,19.70
2024-05-09T11:41:18.470Z,19.80
2024-05-09T11:44:08.110Z,19.90
2024-05-09T11:46:55.100Z,19.90
2024-05-09T11:49:44.431Z,20.00
2024-05-09T11:52:32.895Z,20.00
2024-05-09T11:55:28.116Z,20.00
2024-05-09T11:58:17.591Z,20.10
2024-05-09T12:01:08.401Z,20.10
2024-05-09T12:03:55.481Z,20.10
2024-05-09T12:06:46.224Z,20.10
2024-05-09T12:09:34.244Z,20.10
2024-05-09T12:12:26.138Z,20.20
2024-05-09T12:15:13.345Z,20.30
2024-05-09T12:18:04.210Z,20.30
2024-05-09T12:20:51.087Z,20.40
2024-05-09T12:23:40.781Z,20.50
2024-05-09T12:26:30.288Z,20.60
2024-05-09T12:29:20.718Z,20.70
2024-05-09T12:32:10.411Z,20.70
2024-05-09T12:34:57.502Z,20.70
2024-05-09T12:37:47.310Z,20.80
2024-05-09T12:40:37.551Z,20.80
2024-05-09T12:43:28.481Z,20.70
2024-05-09T12:46:20.405Z,20.60
2024-05-09T12:49:10.752Z,20.50
2024-05-09T14:41:22.285Z,20.80
2024-05-09T14:44:09.263Z,20.80
2024-05-09T14:46:58.907Z,20.90
2024-05-09T14:49:46.015Z,21.00
2024-05-09T14:52:35.150Z,21.00
2024-05-09T14:55:21.899Z,21.10
2024-05-09T14:58:14.174Z,21.00
2024-05-09T15:01:01.017Z,20.90
2024-05-09T15:03:50.854Z,20.80
2024-05-09T15:06:43.128Z,20.60
2024-05-09T15:09:36.362Z,20.50
2024-05-09T15:12:26.024Z,20.50
2024-05-09T15:15:15.575Z,20.60
2024-05-09T15:18:06.830Z,20.70
2024-05-09T15:20:53.879Z,20.80
2024-05-09T15:23:43.699Z,20.90
2024-05-09T15:26:30.968Z,20.90
2024-05-09T15:29:20.541Z,20.90
2024-05-09T15:32:10.193Z,21.10
2024-05-09T15:34:59.418Z,21.10
2024-05-09T15:37:48.395Z,21.00
2024-05-09T15:40:40.393Z,21.10
2024-05-09T15:43:28.376Z,21.10
2024-05-09T15:46:18.209Z,21.20
2024-05-09T15:49:08.062Z,21.10
2024-05-09T15:51:57.421Z,21.10
2024-05-09T15:54:44.180Z,21.00
2024-05-09T15:57:33.660Z,21.00
2024-05-09T16:00:28.517Z,21.00
2024-05-09T16:03:23.781Z,20.90
2024-05-09T16:06:13.080Z,20.90
2024-05-09T16:09:02.799Z,20.80
2024-05-09T16:11:49.594Z,20.80
2024-05-09T16:14:38.956Z,20.80
2024-05-09T16:17:25.796Z,20.90
2024-05-09T16:20:25.710Z,20.80
2024-05-09T16:23:22.833Z,20.70
2024-05-09T16:26:12.222Z,20.60
2024-05-09T16:28:59.241Z,20.60
2024-05-09T16:31:48.565Z,20.60
2024-05-09T16:34:35.204Z,20.60
2024-05-09T16:37:29.419Z,20.60
2024-05-09T16:40:25.840Z,20.60
2024-05-09T16:43:24.204Z,20.70
2024-05-09T16:46:10.942Z,20.60
2024-05-09T16:49:00.455Z,20.60
2024-05-09T16:51:49.826Z,20.50
2024-05-09T16:54:36.615Z,20.40
2024-05-09T16:57:28.509Z,20.30
2024-05-09T17:00:25.205Z,20.30
2024-05-09T17:03:21.193Z,20.20
2024-05-09T17:06:08.240Z,20.10
2024-05-09T17:09:05.279Z,20.10
2024-05-09T17:11:58.038Z,20.00
2024-05-09T17:14:50.090Z,20.00
2024-05-09T17:17:39.667Z,19.90
2024-05-09T17:20:33.526Z,19.90
2024-05-09T17:23:22.916Z,19.80
2024-05-09T17:26:12.081Z,19.70
2024-05-09T17:28:58.760Z,19.70
2024-05-09T17:31:50.965Z,19.60
2024-05-09T17:34:37.831Z,19.60
2024-05-09T17:37:28.018Z,19.60
2024-05-09T17:40:17.254Z,19.50
2024-05-09T17:43:10.949Z,19.50
2024-05-09T17:45:58.179Z,19.40
2024-05-09T17:48:50.064Z,19.40
2024-05-09T17:51:36.787Z,19.40
2024-05-09T17:54:25.950Z,19.40
2024-05-09T17:57:12.776Z,19.30
2024-05-09T18:00:02.967Z,19.30
2024-05-09T18:02:59.383Z,19.20
2024-05-09T18:05:51.275Z,19.20
2024-05-09T18:08:38.181Z,19.10
2024-05-09T18:11:28.615Z,19.00
2024-05-09T18:14:15.257Z,19.00
2024-05-09T18:17:04.765Z,19.00
2024-05-09T18:19:51.602Z,18.90
2024-05-09T18:22:43.344Z,18.90
2024-05-09T18:25:29.789Z,18.90
2024-05-09T18:28:19.663Z,18.80
2024-05-09T18:31:06.492Z,18.70
2024-05-09T18:33:55.933Z,18.70
2024-05-09T18:36:42.738Z,18.60
2024-05-09T18:39:34.797Z,18.50
2024-05-09T18:42:21.527Z,18.50
2024-05-09T18:45:11.111Z,18.50
2024-05-09T18:47:57.936Z,18.50
2024-05-09T18:50:48.876Z,18.40
2024-05-09T18:53:35.417Z,18.30
2024-05-09T18:56:27.354Z,18.30
2024-05-09T18:59:16.847Z,18.20
2024-05-09T19:02:04.021Z,18.20
2024-05-09T19:04:53.303Z,18.10
2024-05-09T19:07:42.588Z,18.00
2024-05-09T19:10:34.842Z,17.90
2024-05-09T19:13:25.663Z,17.90
2024-05-09T19:16:15.497Z,17.80
2024-05-09T19:19:03.768Z,17.70
2024-05-09T19:21:53.613Z,17.60
2024-05-09T19:24:40.511Z,17.50
2024-05-09T19:27:29.821Z,17.40
2024-05-09T19:30:30.179Z,17.30
2024-05-09T19:33:26.097Z,17.20
2024-05-09T19:36:15.339Z,17.10
2024-05-09T19:39:02.384Z,17.00
2024-05-09T19:41:51.894Z,16.90
2024-05-09T19:44:38.684Z,16.80
2024-05-09T19:47:30.854Z,16.70
2024-05-09T19:50:26.632Z,16.60
2024-05-09T19:53:22.236Z,16.50
2024-05-09T19:56:08.829Z,16.40
2024-05-09T19:58:58.113Z,16.30
2024-05-09T20:01:45.163Z,16.30
2024-05-09T20:04:37.492Z,16.20
2024-05-09T20:07:24.438Z,16.10
2024-05-09T20:10:20.636Z,16.00
2024-05-09T20:13:11.250Z,16.00
2024-05-09T20:16:01.252Z,15.90
2024-05-09T20:18:48.366Z,15.80
2024-05-09T20:21:44.782Z,15.70
2024-05-09T20:24:31.810Z,15.70
2024-05-09T20:27:24.681Z,15.60
2024-05-09T20:30:14.445Z,15.50
2024-05-09T20:33:08.773Z,15.50
2024-05-09T20:36:01.588Z,15.40
2024-05-09T20:38:54.709Z,15.30
2024-05-09T20:41:44.173Z,15.30
2024-05-09T20:44:33.826Z,15.20
2024-05-09T20:47:21.255Z,15.20
2024-05-09T20:50:20.561Z,15.10
2024-05-09T20:53:16.630Z,15.10
2024-05-09T20:56:10.169Z,15.00
2024-05-09T20:58:57.894Z,15.00
2024-05-09T21:01:49.365Z,14.90
2024-05-09T21:04:36.947Z,14.90
2024-05-09T21:07:26.995Z,14.80
2024-05-09T21:10:19.436Z,14.80
2024-05-09T21:13:14.449Z,14.70
2024-05-09T21:16:01.510Z,14.70
2024-05-09T21:18:51.090Z,14.60
2024-05-09T21:21:39.937Z,14.60
2024-05-09T21:24:29.319Z,14.50
2024-05-09T21:27:16.045Z,14.40
2024-05-09T21:30:13.354Z,14.40
2024-05-09T21:33:06.394Z,14.30
2024-05-09T21:35:57.614Z,14.30
2024-05-09T21:38:44.270Z,14.30
2024-05-09T21:41:33.614Z,14.20
2024-05-09T21:44:20.260Z,14.20
2024-05-09T21:47:12.417Z,14.10
2024-05-09T21:49:58.957Z,14.00
2024-05-09T21:52:48.229Z,14.00
2024-05-09T21:55:35.253Z,14.00
2024-05-09T21:58:24.960Z,13.90
2024-05-09T22:01:12.125Z,13.90
2024-05-09T22:04:04.162Z,13.80
2024-05-09T22:06:51.176Z,13.70
2024-05-09T22:09:45.324Z,13.70
2024-05-09T22:12:32.054Z,13.60
2024-05-09T22:15:21.339Z,13.60
2024-05-09T22:18:09.149Z,13.50
2024-05-09T22:21:01.711Z,13.50
2024-05-09T22:23:48.537Z,13.40
2024-05-09T22:26:39.675Z,13.40
2024-05-09T22:29:26.262Z,13.40
2024-05-09T22:32:15.824Z,13.30
2024-05-09T22:35:02.712Z,13.30
2024-05-09T22:37:55.250Z,13.20
2024-05-09T22:40:47.709Z,13.20
2024-05-09T22:43:38.948Z,13.20
2024-05-09T22:46:28.310Z,13.10
2024-05-09T22:49:15.029Z,13.10
2024-05-09T22:52:04.373Z,13.10
2024-05-09T22:54:53.663Z,13.10
2024-05-09T22:57:42.908Z,13.00
2024-05-09T23:00:32.118Z,13.00
2024-05-09T23:03:22.996Z,12.90
2024-05-09T23:06:10.334Z,12.90
2024-05-09T23:08:59.645Z,12.80
2024-05-09T23:11:49.007Z,12.80
2024-05-09T23:14:38.220Z,12.80
2024-05-09T23:17:24.933Z,12.70
2024-05-09T23:20:14.955Z,12.70
2024-05-09T23:23:02.103Z,12.70
2024-05-09T23:25:52.817Z,12.60
2024-05-09T23:28:42.586Z,12.60
2024-05-09T23:31:32.404Z,12.50
2024-05-09T23:34:19.636Z,12.50
2024-05-09T23:37:10.860Z,12.40
2024-05-09T23:39:57.776Z,12.40
2024-05-09T23:42:47.053Z,12.40
2024-05-09T23:45:36.550Z,12.40
2024-05-09T23:48:25.814Z,12.30
2024-05-09T23:51:12.584Z,12.30
2024-05-09T23:54:01.990Z,12.30
2024-05-09T23:56:48.510Z,12.30
2024-05-09T23:59:37.660Z,12.20
